createdAt,value
2017-07-27T00:00:29.174Z,0
2017-07-27T00:01:31.640Z,0
2017-07-27T00:02:34.177Z,0
2017-07-27T00:03:36.627Z,0
2017-07-27T00:04:39.100Z,0
2017-07-27T00:05:41.567Z,0
2017-07-27T00:06:44.058Z,0
2017-07-27T00:07:46.636Z,0
2017-07-27T00:08:49.102Z,0
2017-07-27T00:09:51.529Z,0
2017-07-27T00:10:53.963Z,0
2017-07-27T00:11:56.441Z,0
2017-07-27T00:12:58.974Z,0
2017-07-27T00:14:01.428Z,0
2017-07-27T00:15:03.904Z,0
2017-07-27T00:16:06.385Z,0
2017-07-27T00:17:09.717Z,0
2017-07-27T00:18:12.257Z,0
2017-07-27T00:19:14.729Z,0
2017-07-27T00:20:17.179Z,0
2017-07-27T00:21:19.627Z,0
2017-07-27T00:22:22.065Z,0
2017-07-27T00:23:24.592Z,0
2017-07-27T00:24:27.055Z,0
2017-07-27T00:25:29.500Z,0
2017-07-27T00:26:31.959Z,0
2017-07-27T00:27:34.424Z,0
2017-07-27T00:28:36.965Z,0
2017-07-27T00:29:39.398Z,0
2017-07-27T00:30:41.859Z,0
2017-07-27T00:31:44.322Z,0
2017-07-27T00:32:46.790Z,0
2017-07-27T00:33:49.304Z,0
2017-07-27T00:34:51.778Z,0
2017-07-27T00:35:54.254Z,0
2017-07-27T00:36:56.734Z,0
2017-07-27T00:37:59.186Z,0
2017-07-27T00:39:01.719Z,0
2017-07-27T00:40:04.198Z,0
2017-07-27T00:41:06.653Z,0
2017-07-27T00:42:09.115Z,0
2017-07-27T00:43:11.590Z,0
2017-07-27T00:44:14.122Z,0
2017-07-27T00:45:16.594Z,0
2017-07-27T00:46:19.027Z,0
2017-07-27T00:47:21.477Z,0
2017-07-27T00:48:23.959Z,0
2017-07-27T00:49:26.484Z,0
2017-07-27T00:50:28.920Z,0
2017-07-27T00:51:31.381Z,0
2017-07-27T00:52:33.825Z,0
2017-07-27T00:53:36.297Z,0
2017-07-27T00:54:38.818Z,0
2017-07-27T00:55:41.271Z,0
2017-07-27T00:56:43.713Z,0
2017-07-27T00:57:46.186Z,0
2017-07-27T00:58:48.657Z,0
2017-07-27T00:59:51.171Z,0
2017-07-27T01:00:53.622Z,0
2017-07-27T01:01:56.058Z,0
2017-07-27T01:02:58.489Z,0
2017-07-27T01:04:00.966Z,0
2017-07-27T01:05:03.493Z,0
2017-07-27T01:06:05.953Z,0
2017-07-27T01:07:08.414Z,0
2017-07-27T01:08:10.866Z,0
2017-07-27T01:09:13.351Z,0
2017-07-27T01:10:15.851Z,0
2017-07-27T01:11:18.325Z,0
2017-07-27T01:12:20.776Z,0
2017-07-27T01:13:23.259Z,0
2017-07-27T01:14:25.728Z,0
2017-07-27T01:15:28.276Z,0
2017-07-27T01:16:30.750Z,0
2017-07-27T01:17:33.234Z,0
2017-07-27T01:18:35.667Z,0
2017-07-27T01:19:38.121Z,0
2017-07-27T01:20:40.641Z,0
2017-07-27T01:21:43.096Z,0
2017-07-27T01:22:45.534Z,0
2017-07-27T01:23:47.974Z,0
2017-07-27T01:24:50.458Z,0
2017-07-27T01:25:52.956Z,0
2017-07-27T01:26:55.417Z,0
2017-07-27T01:27:57.851Z,0
2017-07-27T01:29:00.327Z,0
2017-07-27T01:30:02.795Z,0
2017-07-27T01:31:05.323Z,0
2017-07-27T01:32:08.554Z,0
2017-07-27T01:33:10.977Z,0
2017-07-27T01:34:13.436Z,0
2017-07-27T01:35:15.911Z,0
2017-07-27T01:36:18.423Z,0
2017-07-27T01:37:20.870Z,0
2017-07-27T01:38:23.305Z,0
2017-07-27T01:39:25.769Z,0
2017-07-27T01:40:28.268Z,0
2017-07-27T01:41:30.801Z,0
2017-07-27T01:42:33.250Z,0
2017-07-27T01:43:35.711Z,0
2017-07-27T01:44:38.179Z,0
2017-07-27T01:45:40.648Z,0
2017-07-27T01:46:43.223Z,0
2017-07-27T01:47:45.690Z,0
2017-07-27T01:48:48.131Z,0
2017-07-27T01:49:50.575Z,0
2017-07-27T01:50:53.139Z,0
2017-07-27T01:51:55.698Z,0
2017-07-27T01:52:58.166Z,0
2017-07-27T01:54:00.626Z,0
2017-07-27T01:55:03.064Z,0
2017-07-27T01:56:05.511Z,0
2017-07-27T01:57:08.054Z,0
2017-07-27T01:58:10.509Z,0
2017-07-27T01:59:12.993Z,0
2017-07-27T02:00:15.448Z,0
2017-07-27T02:01:17.931Z,0
2017-07-27T02:02:20.484Z,0
2017-07-27T02:03:22.944Z,0
2017-07-27T02:04:25.389Z,0
2017-07-27T02:05:27.860Z,0
2017-07-27T02:06:30.315Z,0
2017-07-27T02:07:32.853Z,0
2017-07-27T02:08:35.321Z,0
2017-07-27T02:09:37.761Z,0
2017-07-27T02:10:40.200Z,0
2017-07-27T02:11:42.650Z,0
2017-07-27T02:12:45.183Z,0
2017-07-27T02:13:47.634Z,0
2017-07-27T02:14:50.090Z,0
2017-07-27T02:15:52.553Z,0
2017-07-27T02:16:55.006Z,0
2017-07-27T02:17:57.533Z,0
2017-07-27T02:19:00.004Z,0
2017-07-27T02:20:02.468Z,0
2017-07-27T02:21:04.925Z,0
2017-07-27T02:22:07.391Z,0
2017-07-27T02:23:09.892Z,0
2017-07-27T02:24:12.415Z,0
2017-07-27T02:25:14.884Z,0
2017-07-27T02:26:17.377Z,0
2017-07-27T02:27:19.837Z,0
2017-07-27T02:28:22.354Z,0
2017-07-27T02:29:24.823Z,0
2017-07-27T02:30:27.309Z,0
2017-07-27T02:31:29.773Z,0
2017-07-27T02:32:32.230Z,0
2017-07-27T02:33:34.744Z,0
2017-07-27T02:34:37.230Z,0
2017-07-27T02:35:39.670Z,0
2017-07-27T02:36:42.142Z,0
2017-07-27T02:37:44.608Z,0
2017-07-27T02:38:47.153Z,0
2017-07-27T02:39:49.645Z,0
2017-07-27T02:40:52.079Z,0
2017-07-27T02:41:54.526Z,0
2017-07-27T02:42:56.961Z,0
2017-07-27T02:43:59.504Z,0
2017-07-27T02:45:01.948Z,0
2017-07-27T02:46:04.401Z,0
2017-07-27T02:47:07.407Z,0
2017-07-27T02:48:09.884Z,0
2017-07-27T02:49:12.432Z,0
2017-07-27T02:50:14.890Z,0
2017-07-27T02:51:17.348Z,0
2017-07-27T02:52:19.797Z,0
2017-07-27T02:53:22.256Z,0
2017-07-27T02:54:24.802Z,0
2017-07-27T02:55:27.240Z,0
2017-07-27T02:56:29.712Z,0
2017-07-27T02:57:32.182Z,0
2017-07-27T02:58:34.645Z,0
2017-07-27T02:59:37.202Z,0
2017-07-27T03:00:39.654Z,0
2017-07-27T03:01:42.115Z,0
2017-07-27T03:02:44.549Z,0
2017-07-27T03:03:46.986Z,0
2017-07-27T03:04:49.528Z,0
2017-07-27T03:05:51.990Z,0
2017-07-27T03:06:54.431Z,0
2017-07-27T03:07:56.871Z,0
2017-07-27T03:08:59.337Z,0
2017-07-27T03:10:01.880Z,0
2017-07-27T03:11:04.343Z,0
2017-07-27T03:12:06.851Z,0
2017-07-27T03:13:09.320Z,0
2017-07-27T03:14:11.764Z,0
2017-07-27T03:15:14.314Z,0
2017-07-27T03:16:16.771Z,0
2017-07-27T03:17:19.204Z,0
2017-07-27T03:18:21.672Z,0
2017-07-27T03:19:24.138Z,4
2017-07-27T03:20:26.668Z,4
2017-07-27T03:21:29.147Z,4
2017-07-27T03:22:31.613Z,0
2017-07-27T03:23:34.100Z,4
2017-07-27T03:24:36.571Z,4
2017-07-27T03:25:39.104Z,8
2017-07-27T03:26:41.540Z,8
2017-07-27T03:27:43.969Z,8
2017-07-27T03:28:46.421Z,12
2017-07-27T03:29:48.893Z,12
2017-07-27T03:30:51.431Z,16
2017-07-27T03:31:53.904Z,16
2017-07-27T03:32:56.357Z,16
2017-07-27T03:33:58.807Z,24
2017-07-27T03:35:01.243Z,24
2017-07-27T03:36:03.771Z,28
2017-07-27T03:37:06.199Z,32
2017-07-27T03:38:08.643Z,36
2017-07-27T03:39:11.102Z,44
2017-07-27T03:40:13.559Z,56
2017-07-27T03:41:16.089Z,64
2017-07-27T03:42:18.539Z,80
2017-07-27T03:43:20.982Z,96
2017-07-27T03:44:23.460Z,112
2017-07-27T03:45:25.926Z,128
2017-07-27T03:46:28.466Z,148
2017-07-27T03:47:30.947Z,172
2017-07-27T03:48:33.401Z,196
2017-07-27T03:49:35.856Z,216
2017-07-27T03:50:38.301Z,240
2017-07-27T03:51:40.862Z,260
2017-07-27T03:52:43.336Z,280
2017-07-27T03:53:45.804Z,300
2017-07-27T03:54:48.246Z,324
2017-07-27T03:55:50.723Z,348
2017-07-27T03:56:53.234Z,376
2017-07-27T03:57:55.695Z,404
2017-07-27T03:58:58.199Z,436
2017-07-27T04:00:00.677Z,468
2017-07-27T04:01:03.153Z,504
2017-07-27T04:02:05.706Z,540
2017-07-27T04:03:08.186Z,584
2017-07-27T04:04:10.644Z,636
2017-07-27T04:05:13.109Z,692
2017-07-27T04:06:15.567Z,748
2017-07-27T04:07:18.105Z,812
2017-07-27T04:08:20.536Z,884
2017-07-27T04:09:23.000Z,972
2017-07-27T04:10:25.476Z,1052
2017-07-27T04:11:27.928Z,1132
2017-07-27T04:12:30.495Z,1220
2017-07-27T04:13:32.964Z,1308
2017-07-27T04:14:35.438Z,1416
2017-07-27T04:15:37.909Z,1516
2017-07-27T04:16:40.383Z,1580
2017-07-27T04:17:42.920Z,1592
2017-07-27T04:18:45.360Z,1568
2017-07-27T04:19:47.812Z,1516
2017-07-27T04:20:50.272Z,1472
2017-07-27T04:21:52.733Z,1448
2017-07-27T04:22:55.260Z,1472
2017-07-27T04:23:57.753Z,1528
2017-07-27T04:25:00.231Z,1604
2017-07-27T04:26:02.697Z,1692
2017-07-27T04:27:05.158Z,1796
2017-07-27T04:28:07.691Z,1920
2017-07-27T04:29:10.156Z,2052
2017-07-27T04:30:12.625Z,2188
2017-07-27T04:31:15.106Z,2328
2017-07-27T04:32:17.730Z,2484
2017-07-27T04:33:20.247Z,2648
2017-07-27T04:34:22.700Z,2812
2017-07-27T04:35:25.145Z,2916
2017-07-27T04:36:27.609Z,2980
2017-07-27T04:37:30.097Z,2976
2017-07-27T04:38:32.715Z,2920
2017-07-27T04:39:35.165Z,2848
2017-07-27T04:40:37.639Z,2788
2017-07-27T04:41:40.126Z,2764
2017-07-27T04:42:42.603Z,2760
2017-07-27T04:43:45.137Z,2788
2017-07-27T04:44:47.603Z,2844
2017-07-27T04:45:50.085Z,2908
2017-07-27T04:46:52.561Z,2980
2017-07-27T04:47:55.038Z,3028
2017-07-27T04:48:57.580Z,3052
2017-07-27T04:50:00.032Z,3088
2017-07-27T04:51:02.496Z,3148
2017-07-27T04:52:04.951Z,3220
2017-07-27T04:53:07.428Z,3296
2017-07-27T04:54:09.961Z,3396
2017-07-27T04:55:12.397Z,3528
2017-07-27T04:56:14.883Z,3724
2017-07-27T04:57:17.394Z,3944
2017-07-27T04:58:19.855Z,4156
2017-07-27T04:59:22.398Z,4440
2017-07-27T05:00:24.874Z,4820
2017-07-27T05:01:27.341Z,5160
2017-07-27T05:02:29.799Z,5452
2017-07-27T05:03:32.369Z,5876
2017-07-27T05:04:34.891Z,6372
2017-07-27T05:05:37.363Z,6772
2017-07-27T05:06:39.883Z,7080
2017-07-27T05:07:42.356Z,7268
2017-07-27T05:08:44.832Z,7332
2017-07-27T05:09:47.381Z,7272
2017-07-27T05:10:49.849Z,7136
2017-07-27T05:11:52.314Z,6964
2017-07-27T05:12:54.775Z,6768
2017-07-27T05:13:57.305Z,6600
2017-07-27T05:14:59.871Z,6416
2017-07-27T05:16:02.325Z,6252
2017-07-27T05:17:04.854Z,6156
2017-07-27T05:18:07.317Z,6092
2017-07-27T05:19:09.791Z,6036
2017-07-27T05:20:12.332Z,6044
2017-07-27T05:21:14.807Z,6108
2017-07-27T05:22:17.562Z,6224
2017-07-27T05:23:20.023Z,6420
2017-07-27T05:24:22.499Z,6620
2017-07-27T05:25:25.059Z,6808
2017-07-27T05:26:27.548Z,6948
2017-07-27T05:27:30.008Z,7068
2017-07-27T05:28:32.450Z,7256
2017-07-27T05:29:34.937Z,7512
2017-07-27T05:30:37.493Z,7788
2017-07-27T05:31:39.943Z,8104
2017-07-27T05:32:42.431Z,8380
2017-07-27T05:33:44.915Z,8704
2017-07-27T05:34:47.365Z,9020
2017-07-27T05:35:49.884Z,9404
2017-07-27T05:36:52.371Z,9856
2017-07-27T05:37:54.839Z,10352
2017-07-27T05:38:57.309Z,10848
2017-07-27T05:39:59.751Z,11156
2017-07-27T05:41:02.269Z,11244
2017-07-27T05:42:04.751Z,11152
2017-07-27T05:43:07.190Z,11008
2017-07-27T05:44:09.648Z,10808
2017-07-27T05:45:12.143Z,10504
2017-07-27T05:46:14.669Z,10176
2017-07-27T05:47:17.146Z,9916
2017-07-27T05:48:19.622Z,9692
2017-07-27T05:49:22.147Z,9560
2017-07-27T05:50:24.621Z,9460
2017-07-27T05:51:27.156Z,9376
2017-07-27T05:52:29.587Z,9372
2017-07-27T05:53:32.035Z,9420
2017-07-27T05:54:34.480Z,9508
2017-07-27T05:55:37.046Z,9484
2017-07-27T05:56:39.642Z,9380
2017-07-27T05:57:42.126Z,9320
2017-07-27T05:58:44.597Z,9272
2017-07-27T05:59:47.034Z,9212
2017-07-27T06:00:49.489Z,9112
2017-07-27T06:01:52.059Z,8944
2017-07-27T06:02:54.551Z,8764
2017-07-27T06:03:57.024Z,8608
2017-07-27T06:04:59.466Z,8400
2017-07-27T06:06:01.922Z,8156
2017-07-27T06:07:04.443Z,7892
2017-07-27T06:08:06.925Z,7540
2017-07-27T06:09:09.389Z,7172
2017-07-27T06:10:11.841Z,6916
2017-07-27T06:11:14.319Z,6692
2017-07-27T06:12:16.882Z,6544
2017-07-27T06:13:19.360Z,6432
2017-07-27T06:14:21.832Z,6224
2017-07-27T06:15:24.300Z,5956
2017-07-27T06:16:26.753Z,5716
2017-07-27T06:17:33.886Z,5568
